Phoenix, Arizona
Traffic Map
Current Weather Conditions
Phoenix, Arizona
Few Clouds
Few Clouds
79°
Feels Like: 79°
Wind Chill: 79° Ceiling: Unl
Heat Index: 79° Visibility: 10mi
Dew Point: 37° Wind: 10mph
Humidity: 22% Direction: 90° (E)
Pressure: 30.03in Gusts: 0mph
Raw Report DataKPHX 301651Z 09009KT 10SM FEW250 26/03 A3003 RMK AO2 SLP152 T02610028
Traffic Incident Summary
Active as of:
Severity:
Category:
InformationThere was an issue retrieving the traffic information for this location. Please try a different location or try again shortly.
Advertisements
Track Severe Weather on mobile